Portada
METAR-TAF:

METAR-TAF

Aeroports :

Harare, Zimbabwe

latitud: 17-55S, longitud: 031-08E, altitud: 1479 m

Observació

L'informe es va fer fa 1 hora i 33 minuts, a les 07:00 UTC
Vent 7 kt del Sud-Est, variant entre Est i Sud
Temperatura 20°C
Humitat 40%
Pressió 1026 hPa
Visibilitat 10 km o més
sense núvols per sota de 1500 mi sense presència de cumulonimbus.

METAR: FVHA 240700Z 14007KT 100V190 CAVOK 20/06 Q1026 NOSIG

Hora: 10:33 (08:33 UTC)

Pronòstic

L'informe es va fer fa 22 hores i 33 minuts, a les 10:00 UTC
Pronòstic vàlid del 23 a les 12 UTC al 24 a les 18 UTC
Vent 7 kt amb direcció variable
Visibilitat 10 km o més
sense núvols per sota de 1500 mi sense presència de cumulonimbus.

TAF: FVHA 231000Z 2312/2418 VRB07KT CAVOK

Observacions i pronòstics meteorològics de més de 4000 aeroports (METAR i TAF).

Les estacions disponibles són els punts grocs i vermells al mapa.

Posi el ratolí al punt desitjat per veure el nom de l'estació.

Feu clic per veure les observacions i els pronòstics meteorològics.

Per canviar el mapa: feu clic els botons verds amb una creu de color negre per apropar; al botó verd amb un guió per allunyar la imatge; o en les fletxes verdes per a mapes adjacents.


METAR-TAF: